sensor_id;sensor_type;location;lat;lon;timestamp;temperature;humidity
19000;DHT22;9633;50.980;13.850;2023-08-01T00:00:34;18.90;99.90
19000;DHT22;9633;50.980;13.850;2023-08-01T00:02:06;19.10;99.90
19000;DHT22;9633;50.980;13.850;2023-08-01T00:03:41;19.00;99.90
19000;DHT22;9633;50.980;13.850;2023-08-01T00:05:14;19.00;99.90
19000;DHT22;9633;50.980;13.850;2023-08-01T00:06:46;19.00;99.90
19000;DHT22;9633;50.980;13.850;2023-08-01T00:08:19;18.90;99.90
19000;DHT22;9633;50.980;13.850;2023-08-01T00:09:51;19.00;99.90
19000;DHT22;9633;50.980;13.850;2023-08-01T00:11:25;19.20;99.90
19000;DHT22;9633;50.980;13.850;2023-08-01T00:12:57;19.30;99.90
19000;DHT22;9633;50.980;13.850;2023-08-01T00:14:30;19.30;99.90
19000;DHT22;9633;50.980;13.850;2023-08-01T00:16:02;19.40;99.90
19000;DHT22;9633;50.980;13.850;2023-08-01T00:17:39;19.40;99.90
19000;DHT22;9633;50.980;13.850;2023-08-01T00:19:12;19.40;99.90
19000;DHT22;9633;50.980;13.850;2023-08-01T00:20:46;19.40;99.90
19000;DHT22;9633;50.980;13.850;2023-08-01T00:22:18;19.50;99.90
19000;DHT22;9633;50.980;13.850;2023-08-01T00:23:51;19.60;99.90
19000;DHT22;9633;50.980;13.850;2023-08-01T00:25:23;19.60;99.90
19000;DHT22;9633;50.980;13.850;2023-08-01T00:26:57;19.60;99.90
19000;DHT22;9633;50.980;13.850;2023-08-01T00:28:29;19.60;99.90
19000;DHT22;9633;50.980;13.850;2023-08-01T00:30:03;19.60;99.90
19000;DHT22;9633;50.980;13.850;2023-08-01T00:31:35;19.60;99.90
19000;DHT22;9633;50.980;13.850;2023-08-01T00:33:09;19.70;99.90
19000;DHT22;9633;50.980;13.850;2023-08-01T00:34:42;19.60;99.90
19000;DHT22;9633;50.980;13.850;2023-08-01T00:36:15;19.60;99.90
19000;DHT22;9633;50.980;13.850;2023-08-01T00:37:47;19.60;99.90
19000;DHT22;9633;50.980;13.850;2023-08-01T00:39:21;19.70;99.90
19000;DHT22;9633;50.980;13.850;2023-08-01T00:40:53;19.60;99.90
19000;DHT22;9633;50.980;13.850;2023-08-01T00:42:26;19.60;99.90
19000;DHT22;9633;50.980;13.850;2023-08-01T00:43:58;19.50;99.90
19000;DHT22;9633;50.980;13.850;2023-08-01T00:45:31;19.50;99.90
19000;DHT22;9633;50.980;13.850;2023-08-01T00:47:04;19.50;99.90
19000;DHT22;9633;50.980;13.850;2023-08-01T00:48:38;19.40;99.90
19000;DHT22;9633;50.980;13.850;2023-08-01T00:50:12;19.40;99.90
19000;DHT22;9633;50.980;13.850;2023-08-01T00:51:45;19.30;99.90
19000;DHT22;9633;50.980;13.850;2023-08-01T00:53:18;19.30;99.90
19000;DHT22;9633;50.980;13.850;2023-08-01T00:54:51;19.30;99.90
19000;DHT22;9633;50.980;13.850;2023-08-01T00:56:24;19.30;99.90
19000;DHT22;9633;50.980;13.850;2023-08-01T00:57:57;19.20;99.90
19000;DHT22;9633;50.980;13.850;2023-08-01T00:59:29;19.10;99.90
19000;DHT22;9633;50.980;13.850;2023-08-01T01:01:02;19.10;99.90
19000;DHT22;9633;50.980;13.850;2023-08-01T01:02:36;19.20;99.90
19000;DHT22;9633;50.980;13.850;2023-08-01T01:04:10;19.10;99.90
19000;DHT22;9633;50.980;13.850;2023-08-01T01:05:52;19.00;99.90
19000;DHT22;9633;50.980;13.850;2023-08-01T01:07:26;19.00;99.90
19000;DHT22;9633;50.980;13.850;2023-08-01T01:08:59;19.00;99.90
19000;DHT22;9633;50.980;13.850;2023-08-01T01:10:31;19.10;99.90
19000;DHT22;9633;50.980;13.850;2023-08-01T01:12:05;19.10;99.90
19000;DHT22;9633;50.980;13.850;2023-08-01T01:13:39;19.10;99.90
19000;DHT22;9633;50.980;13.850;2023-08-01T01:15:11;19.00;99.90
19000;DHT22;9633;50.980;13.850;2023-08-01T01:16:44;19.00;99.90
19000;DHT22;9633;50.980;13.850;2023-08-01T01:18:16;19.00;99.90
19000;DHT22;9633;50.980;13.850;2023-08-01T01:19:49;18.90;99.90
19000;DHT22;9633;50.980;13.850;2023-08-01T01:21:23;18.90;99.90
19000;DHT22;9633;50.980;13.850;2023-08-01T01:23:02;19.00;99.90
19000;DHT22;9633;50.980;13.850;2023-08-01T01:24:36;19.00;99.90
19000;DHT22;9633;50.980;13.850;2023-08-01T01:26:10;19.00;99.90
19000;DHT22;9633;50.980;13.850;2023-08-01T01:27:43;19.10;99.90
19000;DHT22;9633;50.980;13.850;2023-08-01T01:29:18;19.10;99.90
19000;DHT22;9633;50.980;13.850;2023-08-01T01:30:51;19.20;99.90
19000;DHT22;9633;50.980;13.850;2023-08-01T01:32:25;19.20;99.90
19000;DHT22;9633;50.980;13.850;2023-08-01T01:34:01;19.20;99.90
19000;DHT22;9633;50.980;13.850;2023-08-01T01:35:34;19.20;99.90
19000;DHT22;9633;50.980;13.850;2023-08-01T01:37:08;19.30;99.90
19000;DHT22;9633;50.980;13.850;2023-08-01T01:38:41;19.40;99.90
19000;DHT22;9633;50.980;13.850;2023-08-01T01:40:14;19.60;99.90
19000;DHT22;9633;50.980;13.850;2023-08-01T01:41:47;19.70;99.90
19000;DHT22;9633;50.980;13.850;2023-08-01T01:43:21;19.90;99.90
19000;DHT22;9633;50.980;13.850;2023-08-01T01:44:53;19.90;99.90
19000;DHT22;9633;50.980;13.850;2023-08-01T01:46:27;19.90;99.90
19000;DHT22;9633;50.980;13.850;2023-08-01T01:47:59;19.90;99.90
19000;DHT22;9633;50.980;13.850;2023-08-01T01:49:33;19.90;99.90
19000;DHT22;9633;50.980;13.850;2023-08-01T01:51:05;20.00;99.90
19000;DHT22;9633;50.980;13.850;2023-08-01T01:52:39;20.10;99.90
19000;DHT22;9633;50.980;13.850;2023-08-01T01:54:11;20.10;99.90
19000;DHT22;9633;50.980;13.850;2023-08-01T01:55:45;20.20;96.90
19000;DHT22;9633;50.980;13.850;2023-08-01T01:57:18;20.20;99.90
19000;DHT22;9633;50.980;13.850;2023-08-01T01:58:51;20.20;99.90
19000;DHT22;9633;50.980;13.850;2023-08-01T02:00:24;20.20;99.90
19000;DHT22;9633;50.980;13.850;2023-08-01T02:01:56;20.20;99.90
19000;DHT22;9633;50.980;13.850;2023-08-01T02:03:29;20.20;99.90
19000;DHT22;9633;50.980;13.850;2023-08-01T02:05:01;20.20;99.90
19000;DHT22;9633;50.980;13.850;2023-08-01T02:06:35;20.10;99.90
19000;DHT22;9633;50.980;13.850;2023-08-01T02:08:10;20.10;99.90
19000;DHT22;9633;50.980;13.850;2023-08-01T02:09:43;20.10;99.90
19000;DHT22;9633;50.980;13.850;2023-08-01T02:11:16;20.10;99.90
19000;DHT22;9633;50.980;13.850;2023-08-01T02:12:48;20.10;99.90
19000;DHT22;9633;50.980;13.850;2023-08-01T02:14:21;20.00;99.90
19000;DHT22;9633;50.980;13.850;2023-08-01T02:15:54;20.00;99.90
19000;DHT22;9633;50.980;13.850;2023-08-01T02:17:27;19.80;99.90
19000;DHT22;9633;50.980;13.850;2023-08-01T02:19:00;19.60;99.90
19000;DHT22;9633;50.980;13.850;2023-08-01T02:20:37;19.50;99.90
19000;DHT22;9633;50.980;13.850;2023-08-01T02:22:10;19.30;99.90
19000;DHT22;9633;50.980;13.850;2023-08-01T02:23:44;19.10;99.90
19000;DHT22;9633;50.980;13.850;2023-08-01T02:25:16;19.00;99.90
19000;DHT22;9633;50.980;13.850;2023-08-01T02:26:50;18.80;99.90
19000;DHT22;9633;50.980;13.850;2023-08-01T02:28:23;18.80;99.90
19000;DHT22;9633;50.980;13.850;2023-08-01T02:29:56;18.70;99.90
19000;DHT22;9633;50.980;13.850;2023-08-01T02:31:28;18.60;99.90
19000;DHT22;9633;50.980;13.850;2023-08-01T02:33:01;18.50;99.90
19000;DHT22;9633;50.980;13.850;2023-08-01T02:34:34;18.50;99.90
19000;DHT22;9633;50.980;13.850;2023-08-01T02:36:07;18.50;99.90
19000;DHT22;9633;50.980;13.850;2023-08-01T02:37:39;18.40;99.90
19000;DHT22;9633;50.980;13.850;2023-08-01T02:39:14;18.40;99.90
19000;DHT22;9633;50.980;13.850;2023-08-01T02:40:46;18.30;99.90
19000;DHT22;9633;50.980;13.850;2023-08-01T02:42:20;18.30;99.90
19000;DHT22;9633;50.980;13.850;2023-08-01T02:43:52;18.20;99.90
19000;DHT22;9633;50.980;13.850;2023-08-01T02:45:25;18.20;99.90
19000;DHT22;9633;50.980;13.850;2023-08-01T02:46:57;18.10;99.90
19000;DHT22;9633;50.980;13.850;2023-08-01T02:48:30;18.10;99.90
19000;DHT22;9633;50.980;13.850;2023-08-01T02:50:05;18.00;99.90
19000;DHT22;9633;50.980;13.850;2023-08-01T02:51:38;17.90;99.90
19000;DHT22;9633;50.980;13.850;2023-08-01T02:53:10;17.90;99.90
19000;DHT22;9633;50.980;13.850;2023-08-01T02:54:45;17.90;99.90
19000;DHT22;9633;50.980;13.850;2023-08-01T02:56:17;17.80;99.90
19000;DHT22;9633;50.980;13.850;2023-08-01T02:57:50;17.80;99.90
19000;DHT22;9633;50.980;13.850;2023-08-01T02:59:23;17.70;99.90
19000;DHT22;9633;50.980;13.850;2023-08-01T03:00:56;17.70;99.90
19000;DHT22;9633;50.980;13.850;2023-08-01T03:02:29;17.60;99.90
19000;DHT22;9633;50.980;13.850;2023-08-01T03:04:01;17.60;99.90
19000;DHT22;9633;50.980;13.850;2023-08-01T03:05:35;17.60;99.90
19000;DHT22;9633;50.980;13.850;2023-08-01T03:07:08;17.60;99.90
19000;DHT22;9633;50.980;13.850;2023-08-01T03:08:41;17.60;99.90
19000;DHT22;9633;50.980;13.850;2023-08-01T03:10:15;17.50;99.90
19000;DHT22;9633;50.980;13.850;2023-08-01T03:12:07;17.50;99.90
19000;DHT22;9633;50.980;13.850;2023-08-01T03:13:40;17.50;99.90
19000;DHT22;9633;50.980;13.850;2023-08-01T03:15:12;17.40;99.90
19000;DHT22;9633;50.980;13.850;2023-08-01T03:16:45;17.40;99.90
19000;DHT22;9633;50.980;13.850;2023-08-01T03:18:18;17.40;99.90
19000;DHT22;9633;50.980;13.850;2023-08-01T03:19:51;17.30;99.90
19000;DHT22;9633;50.980;13.850;2023-08-01T03:21:23;17.30;99.90
19000;DHT22;9633;50.980;13.850;2023-08-01T03:22:58;17.30;99.90
19000;DHT22;9633;50.980;13.850;2023-08-01T03:24:30;17.30;99.90
19000;DHT22;9633;50.980;13.850;2023-08-01T03:26:06;17.30;99.90
19000;DHT22;9633;50.980;13.850;2023-08-01T03:27:38;17.30;99.90
19000;DHT22;9633;50.980;13.850;2023-08-01T03:29:11;17.30;99.90
19000;DHT22;9633;50.980;13.850;2023-08-01T03:30:43;17.30;99.90
19000;DHT22;9633;50.980;13.850;2023-08-01T03:32:17;17.30;99.90
19000;DHT22;9633;50.980;13.850;2023-08-01T03:33:52;17.30;99.90
19000;DHT22;9633;50.980;13.850;2023-08-01T03:35:24;17.30;99.90
19000;DHT22;9633;50.980;13.850;2023-08-01T03:36:58;17.30;99.90
19000;DHT22;9633;50.980;13.850;2023-08-01T03:38:31;17.30;99.90
19000;DHT22;9633;50.980;13.850;2023-08-01T03:40:04;17.30;99.90
19000;DHT22;9633;50.980;13.850;2023-08-01T03:41:41;17.30;99.90
19000;DHT22;9633;50.980;13.850;2023-08-01T03:43:15;17.30;99.90
19000;DHT22;9633;50.980;13.850;2023-08-01T03:44:47;17.40;99.90
19000;DHT22;9633;50.980;13.850;2023-08-01T03:46:20;17.40;99.90
19000;DHT22;9633;50.980;13.850;2023-08-01T03:47:53;17.40;99.90
19000;DHT22;9633;50.980;13.850;2023-08-01T03:49:27;17.30;99.90
19000;DHT22;9633;50.980;13.850;2023-08-01T03:50:59;17.30;99.90
19000;DHT22;9633;50.980;13.850;2023-08-01T03:52:35;17.40;99.90
19000;DHT22;9633;50.980;13.850;2023-08-01T03:54:07;17.30;99.90
19000;DHT22;9633;50.980;13.850;2023-08-01T03:55:46;17.30;99.90
19000;DHT22;9633;50.980;13.850;2023-08-01T03:57:20;17.30;99.90
19000;DHT22;9633;50.980;13.850;2023-08-01T03:58:53;17.40;99.90
19000;DHT22;9633;50.980;13.850;2023-08-01T04:00:25;17.40;99.90
19000;DHT22;9633;50.980;13.850;2023-08-01T04:02:04;17.40;99.90
19000;DHT22;9633;50.980;13.850;2023-08-01T04:03:37;17.40;99.90
19000;DHT22;9633;50.980;13.850;2023-08-01T04:05:10;17.40;99.90
19000;DHT22;9633;50.980;13.850;2023-08-01T04:06:44;17.30;99.90
19000;DHT22;9633;50.980;13.850;2023-08-01T04:08:16;17.40;99.90
19000;DHT22;9633;50.980;13.850;2023-08-01T04:09:49;17.40;99.90
19000;DHT22;9633;50.980;13.850;2023-08-01T04:11:22;17.40;99.90
19000;DHT22;9633;50.980;13.850;2023-08-01T04:12:56;17.40;99.90
19000;DHT22;9633;50.980;13.850;2023-08-01T04:14:29;17.40;99.90
19000;DHT22;9633;50.980;13.850;2023-08-01T04:16:01;17.50;99.90
19000;DHT22;9633;50.980;13.850;2023-08-01T04:17:35;17.50;99.90
19000;DHT22;9633;50.980;13.850;2023-08-01T04:19:07;17.50;99.90
19000;DHT22;9633;50.980;13.850;2023-08-01T04:20:41;17.50;99.90
19000;DHT22;9633;50.980;13.850;2023-08-01T04:22:13;17.50;99.90
19000;DHT22;9633;50.980;13.850;2023-08-01T04:23:47;17.50;99.90
19000;DHT22;9633;50.980;13.850;2023-08-01T04:25:19;17.50;99.90
19000;DHT22;9633;50.980;13.850;2023-08-01T04:26:52;17.60;99.90
19000;DHT22;9633;50.980;13.850;2023-08-01T04:28:27;17.60;99.90
19000;DHT22;9633;50.980;13.850;2023-08-01T04:30:00;17.60;99.90
19000;DHT22;9633;50.980;13.850;2023-08-01T04:31:33;17.60;99.90
19000;DHT22;9633;50.980;13.850;2023-08-01T04:33:06;17.70;99.90
19000;DHT22;9633;50.980;13.850;2023-08-01T04:34:38;17.70;99.90
19000;DHT22;9633;50.980;13.850;2023-08-01T04:36:11;17.80;99.90
19000;DHT22;9633;50.980;13.850;2023-08-01T04:37:44;17.80;99.90
19000;DHT22;9633;50.980;13.850;2023-08-01T04:39:17;17.90;99.90
19000;DHT22;9633;50.980;13.850;2023-08-01T04:40:50;17.90;99.90
19000;DHT22;9633;50.980;13.850;2023-08-01T04:42:23;17.90;99.90
19000;DHT22;9633;50.980;13.850;2023-08-01T04:43:56;17.90;99.90
19000;DHT22;9633;50.980;13.850;2023-08-01T04:45:30;17.90;99.90
19000;DHT22;9633;50.980;13.850;2023-08-01T04:47:02;18.00;99.90
19000;DHT22;9633;50.980;13.850;2023-08-01T04:48:36;18.00;99.90
19000;DHT22;9633;50.980;13.850;2023-08-01T04:50:09;18.00;99.90
19000;DHT22;9633;50.980;13.850;2023-08-01T04:51:41;18.10;99.90
19000;DHT22;9633;50.980;13.850;2023-08-01T04:53:15;18.20;99.90
19000;DHT22;9633;50.980;13.850;2023-08-01T04:54:47;18.20;99.90
19000;DHT22;9633;50.980;13.850;2023-08-01T04:56:20;18.30;99.90
19000;DHT22;9633;50.980;13.850;2023-08-01T04:57:52;18.30;99.90
19000;DHT22;9633;50.980;13.850;2023-08-01T04:59:27;18.30;99.90
19000;DHT22;9633;50.980;13.850;2023-08-01T05:00:59;18.30;99.90
19000;DHT22;9633;50.980;13.850;2023-08-01T05:02:32;18.30;99.90
19000;DHT22;9633;50.980;13.850;2023-08-01T05:04:06;18.30;99.90
19000;DHT22;9633;50.980;13.850;2023-08-01T05:05:38;18.20;99.90
19000;DHT22;9633;50.980;13.850;2023-08-01T05:07:11;18.20;99.90
19000;DHT22;9633;50.980;13.850;2023-08-01T05:08:43;18.20;99.90
19000;DHT22;9633;50.980;13.850;2023-08-01T05:10:17;18.20;99.90
19000;DHT22;9633;50.980;13.850;2023-08-01T05:11:50;18.20;99.90
19000;DHT22;9633;50.980;13.850;2023-08-01T05:13:23;18.20;99.90
19000;DHT22;9633;50.980;13.850;2023-08-01T05:14:57;18.20;99.90
19000;DHT22;9633;50.980;13.850;2023-08-01T05:16:30;18.20;99.90
19000;DHT22;9633;50.980;13.850;2023-08-01T05:18:02;18.30;99.90
19000;DHT22;9633;50.980;13.850;2023-08-01T05:19:36;18.20;99.90
19000;DHT22;9633;50.980;13.850;2023-08-01T05:21:08;18.20;99.90
19000;DHT22;9633;50.980;13.850;2023-08-01T05:22:41;18.20;99.90
19000;DHT22;9633;50.980;13.850;2023-08-01T05:24:13;18.10;99.90
19000;DHT22;9633;50.980;13.850;2023-08-01T05:25:46;18.10;99.90
19000;DHT22;9633;50.980;13.850;2023-08-01T05:27:20;18.10;99.90
19000;DHT22;9633;50.980;13.850;2023-08-01T05:28:53;18.00;99.90
19000;DHT22;9633;50.980;13.850;2023-08-01T05:30:26;18.00;99.90
19000;DHT22;9633;50.980;13.850;2023-08-01T05:32:00;18.00;99.90
19000;DHT22;9633;50.980;13.850;2023-08-01T05:33:32;17.90;99.90
19000;DHT22;9633;50.980;13.850;2023-08-01T05:35:06;17.90;99.90
19000;DHT22;9633;50.980;13.850;2023-08-01T05:36:38;17.90;99.90
19000;DHT22;9633;50.980;13.850;2023-08-01T05:38:12;17.90;99.90
19000;DHT22;9633;50.980;13.850;2023-08-01T05:39:44;17.90;99.90
19000;DHT22;9633;50.980;13.850;2023-08-01T05:41:17;17.90;99.90
19000;DHT22;9633;50.980;13.850;2023-08-01T05:42:49;17.90;99.90
19000;DHT22;9633;50.980;13.850;2023-08-01T05:44:23;17.90;99.90
19000;DHT22;9633;50.980;13.850;2023-08-01T05:45:56;17.90;99.90
19000;DHT22;9633;50.980;13.850;2023-08-01T05:47:29;18.00;99.90
19000;DHT22;9633;50.980;13.850;2023-08-01T05:49:02;18.00;99.90
19000;DHT22;9633;50.980;13.850;2023-08-01T05:50:35;18.10;99.90
19000;DHT22;9633;50.980;13.850;2023-08-01T05:52:07;18.20;99.90
19000;DHT22;9633;50.980;13.850;2023-08-01T05:53:41;18.20;99.90
19000;DHT22;9633;50.980;13.850;2023-08-01T05:55:13;18.30;99.90
19000;DHT22;9633;50.980;13.850;2023-08-01T05:56:46;18.40;99.90
19000;DHT22;9633;50.980;13.850;2023-08-01T05:58:19;18.40;99.90
19000;DHT22;9633;50.980;13.850;2023-08-01T05:59:52;18.50;99.90
19000;DHT22;9633;50.980;13.850;2023-08-01T06:01:26;18.60;99.90
19000;DHT22;9633;50.980;13.850;2023-08-01T06:03:00;18.70;99.90
19000;DHT22;9633;50.980;13.850;2023-08-01T06:04:33;18.80;99.90
19000;DHT22;9633;50.980;13.850;2023-08-01T06:06:06;18.90;99.90
19000;DHT22;9633;50.980;13.850;2023-08-01T06:07:38;19.00;99.90
19000;DHT22;9633;50.980;13.850;2023-08-01T06:09:11;19.00;99.90
19000;DHT22;9633;50.980;13.850;2023-08-01T06:10:44;19.20;99.90
19000;DHT22;9633;50.980;13.850;2023-08-01T06:12:17;19.30;99.90
19000;DHT22;9633;50.980;13.850;2023-08-01T06:13:49;19.40;99.90
19000;DHT22;9633;50.980;13.850;2023-08-01T06:15:23;19.50;99.90
19000;DHT22;9633;50.980;13.850;2023-08-01T06:16:58;19.60;99.90
19000;DHT22;9633;50.980;13.850;2023-08-01T06:18:30;19.60;99.90
19000;DHT22;9633;50.980;13.850;2023-08-01T06:20:04;19.70;99.90
19000;DHT22;9633;50.980;13.850;2023-08-01T06:21:37;19.60;99.90
19000;DHT22;9633;50.980;13.850;2023-08-01T06:23:10;19.60;99.90
19000;DHT22;9633;50.980;13.850;2023-08-01T06:24:42;19.60;99.90
19000;DHT22;9633;50.980;13.850;2023-08-01T06:26:15;19.60;99.90
19000;DHT22;9633;50.980;13.850;2023-08-01T06:27:47;19.60;99.90
19000;DHT22;9633;50.980;13.850;2023-08-01T06:29:24;19.60;99.90
19000;DHT22;9633;50.980;13.850;2023-08-01T06:30:56;19.60;99.90
19000;DHT22;9633;50.980;13.850;2023-08-01T06:32:31;19.60;99.90
19000;DHT22;9633;50.980;13.850;2023-08-01T06:34:04;19.70;99.90
19000;DHT22;9633;50.980;13.850;2023-08-01T06:35:36;19.70;99.90
19000;DHT22;9633;50.980;13.850;2023-08-01T06:37:09;19.70;99.90
19000;DHT22;9633;50.980;13.850;2023-08-01T06:38:43;19.80;99.90
19000;DHT22;9633;50.980;13.850;2023-08-01T06:40:16;19.90;99.90
19000;DHT22;9633;50.980;13.850;2023-08-01T06:41:49;20.00;99.90
19000;DHT22;9633;50.980;13.850;2023-08-01T06:43:22;20.00;99.90
19000;DHT22;9633;50.980;13.850;2023-08-01T06:44:56;20.10;99.90
19000;DHT22;9633;50.980;13.850;2023-08-01T06:46:29;20.10;99.90
19000;DHT22;9633;50.980;13.850;2023-08-01T06:48:03;20.00;99.90
19000;DHT22;9633;50.980;13.850;2023-08-01T06:49:37;20.10;99.90
19000;DHT22;9633;50.980;13.850;2023-08-01T06:51:09;20.20;99.90
19000;DHT22;9633;50.980;13.850;2023-08-01T06:52:43;20.10;99.90
19000;DHT22;9633;50.980;13.850;2023-08-01T06:54:15;20.20;99.90
19000;DHT22;9633;50.980;13.850;2023-08-01T06:55:48;20.20;99.90
19000;DHT22;9633;50.980;13.850;2023-08-01T06:57:20;20.30;99.90
19000;DHT22;9633;50.980;13.850;2023-08-01T06:58:54;20.40;99.90
19000;DHT22;9633;50.980;13.850;2023-08-01T07:00:27;20.40;99.90
19000;DHT22;9633;50.980;13.850;2023-08-01T07:02:01;20.40;99.90
19000;DHT22;9633;50.980;13.850;2023-08-01T07:03:37;20.40;99.90
19000;DHT22;9633;50.980;13.850;2023-08-01T07:05:10;20.40;99.90
19000;DHT22;9633;50.980;13.850;2023-08-01T07:06:43;20.20;99.90
19000;DHT22;9633;50.980;13.850;2023-08-01T07:08:16;20.00;99.90
19000;DHT22;9633;50.980;13.850;2023-08-01T07:09:49;20.00;99.90
19000;DHT22;9633;50.980;13.850;2023-08-01T07:11:22;20.00;99.90
19000;DHT22;9633;50.980;13.850;2023-08-01T07:12:54;20.00;99.90
19000;DHT22;9633;50.980;13.850;2023-08-01T07:14:28;20.10;99.90
19000;DHT22;9633;50.980;13.850;2023-08-01T07:16:00;20.20;99.90
19000;DHT22;9633;50.980;13.850;2023-08-01T07:17:34;20.30;99.90
19000;DHT22;9633;50.980;13.850;2023-08-01T07:19:07;20.50;99.90
19000;DHT22;9633;50.980;13.850;2023-08-01T07:20:41;20.70;99.90
19000;DHT22;9633;50.980;13.850;2023-08-01T07:22:13;20.80;99.90
19000;DHT22;9633;50.980;13.850;2023-08-01T07:23:46;20.90;99.90
19000;DHT22;9633;50.980;13.850;2023-08-01T07:25:20;21.20;99.90
19000;DHT22;9633;50.980;13.850;2023-08-01T07:26:54;21.40;99.90
19000;DHT22;9633;50.980;13.850;2023-08-01T07:28:26;21.50;99.90
19000;DHT22;9633;50.980;13.850;2023-08-01T07:30:00;21.60;99.90
19000;DHT22;9633;50.980;13.850;2023-08-01T07:31:33;21.70;99.90
19000;DHT22;9633;50.980;13.850;2023-08-01T07:33:06;21.70;99.90
19000;DHT22;9633;50.980;13.850;2023-08-01T07:34:40;21.80;99.90
19000;DHT22;9633;50.980;13.850;2023-08-01T07:36:13;21.90;99.90
19000;DHT22;9633;50.980;13.850;2023-08-01T07:37:45;21.80;99.90
19000;DHT22;9633;50.980;13.850;2023-08-01T07:39:19;21.90;99.90
19000;DHT22;9633;50.980;13.850;2023-08-01T07:40:51;21.90;99.90
19000;DHT22;9633;50.980;13.850;2023-08-01T07:42:24;22.00;99.90
19000;DHT22;9633;50.980;13.850;2023-08-01T07:43:56;22.00;99.90
19000;DHT22;9633;50.980;13.850;2023-08-01T07:45:32;21.80;99.90
19000;DHT22;9633;50.980;13.850;2023-08-01T07:47:05;21.90;99.90
19000;DHT22;9633;50.980;13.850;2023-08-01T07:48:38;21.70;99.90
19000;DHT22;9633;50.980;13.850;2023-08-01T07:50:12;21.70;99.90
19000;DHT22;9633;50.980;13.850;2023-08-01T07:51:45;21.60;99.90
19000;DHT22;9633;50.980;13.850;2023-08-01T07:53:18;21.70;99.90
19000;DHT22;9633;50.980;13.850;2023-08-01T07:54:50;21.70;99.90
19000;DHT22;9633;50.980;13.850;2023-08-01T07:56:25;21.60;99.90
19000;DHT22;9633;50.980;13.850;2023-08-01T07:57:57;21.50;99.90
19000;DHT22;9633;50.980;13.850;2023-08-01T07:59:30;21.50;99.90
19000;DHT22;9633;50.980;13.850;2023-08-01T08:01:03;21.50;99.90
19000;DHT22;9633;50.980;13.850;2023-08-01T08:02:37;21.50;99.90
19000;DHT22;9633;50.980;13.850;2023-08-01T08:04:09;21.40;99.90
19000;DHT22;9633;50.980;13.850;2023-08-01T08:05:44;21.30;99.90
19000;DHT22;9633;50.980;13.850;2023-08-01T08:07:16;21.30;99.90
19000;DHT22;9633;50.980;13.850;2023-08-01T08:08:50;21.30;99.90
19000;DHT22;9633;50.980;13.850;2023-08-01T08:10:22;21.30;99.90
19000;DHT22;9633;50.980;13.850;2023-08-01T08:11:55;21.20;99.90
19000;DHT22;9633;50.980;13.850;2023-08-01T08:13:29;21.10;99.90
19000;DHT22;9633;50.980;13.850;2023-08-01T08:15:03;21.10;99.90
19000;DHT22;9633;50.980;13.850;2023-08-01T08:16:35;21.10;99.90
19000;DHT22;9633;50.980;13.850;2023-08-01T08:18:08;21.20;99.90
19000;DHT22;9633;50.980;13.850;2023-08-01T08:19:41;21.20;99.90
19000;DHT22;9633;50.980;13.850;2023-08-01T08:21:16;21.20;99.90
19000;DHT22;9633;50.980;13.850;2023-08-01T08:22:49;21.30;99.90
19000;DHT22;9633;50.980;13.850;2023-08-01T08:24:21;21.50;99.90
19000;DHT22;9633;50.980;13.850;2023-08-01T08:25:55;21.60;99.90
19000;DHT22;9633;50.980;13.850;2023-08-01T08:27:27;21.90;99.90
19000;DHT22;9633;50.980;13.850;2023-08-01T08:29:00;22.00;99.90
19000;DHT22;9633;50.980;13.850;2023-08-01T08:30:34;22.40;99.90
19000;DHT22;9633;50.980;13.850;2023-08-01T08:32:07;22.50;99.90
19000;DHT22;9633;50.980;13.850;2023-08-01T08:33:40;22.70;99.90
19000;DHT22;9633;50.980;13.850;2023-08-01T08:35:12;22.60;99.90
19000;DHT22;9633;50.980;13.850;2023-08-01T08:36:47;22.60;99.90
19000;DHT22;9633;50.980;13.850;2023-08-01T08:38:21;22.60;99.90
19000;DHT22;9633;50.980;13.850;2023-08-01T08:39:54;22.40;99.90
19000;DHT22;9633;50.980;13.850;2023-08-01T08:41:27;22.30;99.90
19000;DHT22;9633;50.980;13.850;2023-08-01T08:43:02;22.20;99.90
19000;DHT22;9633;50.980;13.850;2023-08-01T08:44:42;21.90;99.90
19000;DHT22;9633;50.980;13.850;2023-08-01T08:46:15;22.00;99.90
19000;DHT22;9633;50.980;13.850;2023-08-01T08:47:55;21.90;99.90
19000;DHT22;9633;50.980;13.850;2023-08-01T08:49:28;22.00;99.90
19000;DHT22;9633;50.980;13.850;2023-08-01T08:51:02;22.10;99.90
19000;DHT22;9633;50.980;13.850;2023-08-01T08:52:36;22.00;99.90
19000;DHT22;9633;50.980;13.850;2023-08-01T08:54:11;22.00;99.90
19000;DHT22;9633;50.980;13.850;2023-08-01T08:55:43;22.00;99.90
19000;DHT22;9633;50.980;13.850;2023-08-01T08:57:18;22.00;99.90
19000;DHT22;9633;50.980;13.850;2023-08-01T08:58:51;22.30;99.90
19000;DHT22;9633;50.980;13.850;2023-08-01T09:00:24;22.40;99.90
19000;DHT22;9633;50.980;13.850;2023-08-01T09:01:59;22.30;99.90
19000;DHT22;9633;50.980;13.850;2023-08-01T09:03:33;22.20;99.90
19000;DHT22;9633;50.980;13.850;2023-08-01T09:05:06;22.10;99.90
19000;DHT22;9633;50.980;13.850;2023-08-01T09:06:43;22.20;99.90
19000;DHT22;9633;50.980;13.850;2023-08-01T09:08:24;22.30;99.90
19000;DHT22;9633;50.980;13.850;2023-08-01T09:09:59;22.20;99.90
19000;DHT22;9633;50.980;13.850;2023-08-01T09:11:40;22.40;99.90
19000;DHT22;9633;50.980;13.850;2023-08-01T09:13:13;22.80;99.90
19000;DHT22;9633;50.980;13.850;2023-08-01T09:14:49;22.80;99.90
19000;DHT22;9633;50.980;13.850;2023-08-01T09:16:22;22.50;99.90
19000;DHT22;9633;50.980;13.850;2023-08-01T09:17:55;22.30;99.90
19000;DHT22;9633;50.980;13.850;2023-08-01T09:19:32;22.20;99.90
19000;DHT22;9633;50.980;13.850;2023-08-01T09:21:05;22.20;99.90
19000;DHT22;9633;50.980;13.850;2023-08-01T09:22:45;22.30;99.90
19000;DHT22;9633;50.980;13.850;2023-08-01T09:24:20;22.10;99.90
19000;DHT22;9633;50.980;13.850;2023-08-01T09:25:53;22.00;99.90
19000;DHT22;9633;50.980;13.850;2023-08-01T09:27:33;22.00;99.90
19000;DHT22;9633;50.980;13.850;2023-08-01T09:29:06;21.80;99.90
19000;DHT22;9633;50.980;13.850;2023-08-01T09:30:46;21.60;99.90
19000;DHT22;9633;50.980;13.850;2023-08-01T09:32:18;21.30;99.90
19000;DHT22;9633;50.980;13.850;2023-08-01T09:33:52;21.30;99.90
19000;DHT22;9633;50.980;13.850;2023-08-01T09:35:25;21.20;99.90
19000;DHT22;9633;50.980;13.850;2023-08-01T09:36:59;21.30;99.90
19000;DHT22;9633;50.980;13.850;2023-08-01T09:38:34;21.20;99.90
19000;DHT22;9633;50.980;13.850;2023-08-01T09:40:09;21.10;99.90
19000;DHT22;9633;50.980;13.850;2023-08-01T09:41:42;21.10;99.90
19000;DHT22;9633;50.980;13.850;2023-08-01T09:43:15;21.10;99.90
19000;DHT22;9633;50.980;13.850;2023-08-01T09:44:48;21.00;99.90
19000;DHT22;9633;50.980;13.850;2023-08-01T09:46:21;21.20;99.90
19000;DHT22;9633;50.980;13.850;2023-08-01T09:47:54;21.20;99.90
19000;DHT22;9633;50.980;13.850;2023-08-01T09:49:27;21.20;99.90